Terminal Aerodrome Forecast
Issued by NWS New Orleans/Baton Rouge, LA

Home | Current Version | Previous Version | Text Only | Print | Product List | Glossary On
Versions: 1 2 3 4 5 6 7 8 9 10 11 12 13 14
000
FTUS44 KLIX 261123
TAFNEW
TAF
KNEW 261123Z 2612/2712 16014KT P6SM BKN045
     FM262300 19018KT P6SM BKN025
     FM270000 19018KT P6SM BKN015
     FM270600 31007KT 3SM -TSRA OVC015CB
     FM271000 32006KT P6SM BKN025 OVC040=

USA.gov is the U.S. government's official web portal to all federal, state and local government web resources and services.